Time;durP1;ratioP1;P1;durP2;ratioP2;P2;SDS_P1;SDS_P2;PMS_P1;PMS_P2;Temp;Humidity;BMP_temperature;BMP_pressure;BME280_temperature;BME280_humidity;BME280_pressure;Samples;Min_cycle;Max_cycle;Signal;HPM_P1;HPM_P2
2021/09/19 00:00:12;;;;;;;4.40;4.00;;;;;;;10.17;69.12;100424.70;117088;1188;23458;-75
2021/09/19 00:03:01;;;;;;;5.50;4.80;;;;;;;10.15;69.13;100429.48;117060;1187;22899;-76
2021/09/19 00:05:30;;;;;;;6.60;4.70;;;;;;;10.14;69.18;100424.79;116720;1187;22847;-76
2021/09/19 00:07:59;;;;;;;5.50;4.90;;;;;;;10.14;69.18;100422.50;116714;1191;23457;-76
2021/09/19 00:10:28;;;;;;;7.00;4.70;;;;;;;10.17;69.33;100421.75;116705;1191;21912;-75
2021/09/19 00:12:57;;;;;;;5.00;4.50;;;;;;;10.20;69.41;100424.02;116686;1191;21900;-75
2021/09/19 00:15:26;;;;;;;5.50;4.90;;;;;;;10.22;69.30;100424.89;116695;1191;23452;-75
2021/09/19 00:17:55;;;;;;;5.50;4.90;;;;;;;10.24;69.26;100425.89;116676;1191;21903;-75
2021/09/19 00:20:25;;;;;;;5.10;4.00;;;;;;;10.24;69.21;100421.79;116741;1191;21894;-75
2021/09/19 00:22:54;;;;;;;8.30;5.30;;;;;;;10.27;69.24;100421.36;116669;1188;21885;-75
2021/09/19 00:25:23;;;;;;;7.50;5.60;;;;;;;10.28;69.15;100419.09;117063;1188;21933;-75
2021/09/19 00:27:52;;;;;;;5.20;4.70;;;;;;;10.30;69.03;100420.54;117122;1187;21878;-74
2021/09/19 00:30:21;;;;;;;6.70;5.40;;;;;;;10.29;68.93;100422.70;116922;1188;21887;-75
2021/09/19 00:32:50;;;;;;;5.70;4.70;;;;;;;10.28;68.87;100421.53;117064;1184;22855;-74
2021/09/19 00:35:23;;;;;;;5.40;4.40;;;;;;;10.26;68.74;100415.64;117107;1188;21878;-75
2021/09/19 00:37:53;;;;;;;5.20;4.70;;;;;;;10.25;69.00;100418.02;117088;1187;21893;-75
2021/09/19 00:40:23;;;;;;;7.30;5.00;;;;;;;10.27;69.08;100414.45;116979;1188;21886;-75
2021/09/19 00:42:51;;;;;;;5.60;5.00;;;;;;;10.29;69.06;100411.30;117080;1188;21878;-76
2021/09/19 00:45:23;;;;;;;4.80;4.30;;;;;;;10.29;69.04;100412.39;117088;1188;22923;-76
2021/09/19 00:47:52;;;;;;;5.00;4.50;;;;;;;10.29;69.00;100415.88;117109;1179;21888;-75
2021/09/19 00:50:24;;;;;;;7.00;5.00;;;;;;;10.29;69.10;100417.92;117088;1187;22850;-76
2021/09/19 00:52:53;;;;;;;5.50;5.00;;;;;;;10.30;69.09;100419.48;117078;1187;21891;-75
2021/09/19 00:55:23;;;;;;;5.20;4.70;;;;;;;10.26;68.95;100418.97;117057;1187;21898;-75
2021/09/19 00:57:55;;;;;;;6.10;5.50;;;;;;;10.22;69.08;100417.70;117084;1179;23613;-75
2021/09/19 01:00:28;;;;;;;6.50;5.80;;;;;;;10.22;69.30;100418.21;117164;1184;21886;-74
2021/09/19 01:02:57;;;;;;;7.80;5.60;;;;;;;10.23;69.45;100419.88;117124;1187;21876;-75
2021/09/19 01:05:27;;;;;;;7.60;5.60;;;;;;;10.23;69.56;100424.36;117124;1187;21875;-76
2021/09/19 01:07:57;;;;;;;6.70;5.60;;;;;;;10.26;69.62;100423.57;117132;1186;21895;-75
2021/09/19 01:10:27;;;;;;;6.30;5.20;;;;;;;10.28;69.54;100422.85;117118;1184;23430;-76
2021/09/19 01:12:56;;;;;;;8.50;6.20;;;;;;;10.29;69.55;100419.02;117122;1187;23615;-76
2021/09/19 01:15:26;;;;;;;8.40;7.20;;;;;;;10.29;69.58;100420.39;117121;1184;22886;-75
2021/09/19 01:17:58;;;;;;;10.40;8.40;;;;;;;10.26;69.54;100423.73;116736;1187;23539;-75
2021/09/19 01:20:28;;;;;;;7.90;7.10;;;;;;;10.25;69.70;100422.06;116696;1191;21943;-76
2021/09/19 01:23:00;;;;;;;10.00;7.70;;;;;;;10.25;69.86;100418.19;116654;1190;21895;-79
2021/09/19 01:25:31;;;;;;;10.60;8.90;;;;;;;10.25;69.92;100422.77;116746;1190;22909;-75
2021/09/19 01:28:02;;;;;;;9.80;8.30;;;;;;;10.23;69.79;100422.62;116734;1190;22989;-76
2021/09/19 01:30:33;;;;;;;9.30;8.40;;;;;;;10.19;69.96;100424.45;116757;1190;21927;-76
2021/09/19 01:33:04;;;;;;;10.50;9.30;;;;;;;10.18;70.27;100418.94;116769;1191;23446;-75
2021/09/19 01:35:34;;;;;;;10.40;9.10;;;;;;;10.20;70.56;100424.59;116825;1187;22271;-76
2021/09/19 01:38:03;;;;;;;12.90;10.10;;;;;;;10.22;70.71;100420.27;117106;1187;22826;-76
2021/09/19 01:40:33;;;;;;;11.80;9.80;;;;;;;10.23;70.53;100417.06;117102;1187;22961;-76
2021/09/19 01:43:03;;;;;;;13.00;10.00;;;;;;;10.21;70.54;100411.76;117136;1187;24149;-76
2021/09/19 01:45:32;;;;;;;11.60;10.00;;;;;;;10.22;70.77;100413.80;117119;1187;23436;-74
2021/09/19 01:48:02;;;;;;;12.70;11.40;;;;;;;10.19;70.53;100419.50;117100;1187;21886;-76
2021/09/19 01:50:31;;;;;;;14.00;11.00;;;;;;;10.15;70.66;100424.17;117136;1187;21897;-76
2021/09/19 01:53:02;;;;;;;11.80;10.60;;;;;;;10.14;71.03;100426.43;117136;1187;21887;-74
2021/09/19 01:55:31;;;;;;;12.50;10.60;;;;;;;10.16;71.31;100423.90;117011;1187;23474;-76
2021/09/19 01:58:00;;;;;;;15.50;10.90;;;;;;;10.19;71.50;100423.73;117108;1187;23457;-76
2021/09/19 02:00:29;;;;;;;16.50;11.80;;;;;;;10.21;71.39;100424.05;117078;1187;22894;-76
2021/09/19 02:02:58;;;;;;;13.30;11.80;;;;;;;10.23;71.60;100419.45;117119;1187;23448;-75
2021/09/19 02:05:28;;;;;;;12.00;10.80;;;;;;;10.25;71.50;100413.95;117090;1187;21906;-76
2021/09/19 02:07:57;;;;;;;14.40;11.30;;;;;;;10.27;71.50;100413.39;117122;1184;23606;-75
2021/09/19 02:10:26;;;;;;;12.80;11.50;;;;;;;10.29;71.40;100418.03;117106;1187;21886;-74
2021/09/19 02:12:55;;;;;;;12.30;10.80;;;;;;;10.29;71.56;100415.48;117150;1187;21886;-75
2021/09/19 02:15:24;;;;;;;15.40;12.20;;;;;;;10.30;71.42;100412.98;117102;1187;21877;-76
2021/09/19 02:17:53;;;;;;;13.60;12.30;;;;;;;10.29;71.34;100413.53;117140;1187;22942;-74
2021/09/19 02:20:22;;;;;;;12.40;10.90;;;;;;;10.30;71.39;100412.61;117114;1187;21874;-75
2021/09/19 02:22:52;;;;;;;12.30;11.10;;;;;;;10.30;71.42;100410.43;117103;1187;21889;-75
2021/09/19 02:25:21;;;;;;;13.90;11.10;;;;;;;10.31;71.54;100408.04;117111;1187;23457;-75
2021/09/19 02:27:50;;;;;;;12.90;10.90;;;;;;;10.33;71.52;100402.52;117124;1187;22923;-75
2021/09/19 02:30:19;;;;;;;11.90;10.50;;;;;;;10.34;71.52;100401.06;117094;1187;21889;-75
2021/09/19 02:32:48;;;;;;;12.50;10.50;;;;;;;10.34;71.53;100399.78;117088;1188;21951;-75
2021/09/19 02:35:17;;;;;;;13.00;10.70;;;;;;;10.36;71.56;100396.15;117075;1187;21875;-76
2021/09/19 02:37:49;;;;;;;13.30;10.40;;;;;;;10.37;71.67;100392.52;117073;1187;23533;-76
2021/09/19 02:40:18;;;;;;;;;;;;;;;10.39;71.72;100397.20;117124;1187;21869;-75
2021/09/19 02:42:51;;;;;;;12.20;9.40;;;;;;;10.34;71.77;100393.80;117103;1187;23551;-75
2021/09/19 02:45:21;;;;;;;11.00;9.90;;;;;;;10.34;71.67;100394.19;117122;1179;21880;-76
2021/09/19 02:47:50;;;;;;;11.80;10.10;;;;;;;10.37;71.76;100394.98;117105;1187;23456;-73
2021/09/19 02:50:24;;;;;;;10.90;9.80;;;;;;;10.38;71.53;100402.55;117129;1187;21875;-76
2021/09/19 02:52:54;;;;;;;11.70;10.50;;;;;;;10.38;71.33;100406.45;117130;1187;22898;-75
2021/09/19 02:55:23;;;;;;;11.30;10.10;;;;;;;10.37;71.34;100404.30;117121;1187;22897;-75
2021/09/19 02:57:51;;;;;;;10.50;9.30;;;;;;;10.36;71.39;100407.00;117087;1187;23561;-75
2021/09/19 03:00:22;;;;;;;12.30;10.30;;;;;;;10.38;71.32;100408.27;117109;1188;21886;-75
2021/09/19 03:02:52;;;;;;;10.70;9.10;;;;;;;10.36;71.36;100411.20;117139;1187;22902;-75
2021/09/19 03:05:21;;;;;;;14.30;11.00;;;;;;;10.35;71.34;100411.86;117107;1188;21952;-75
2021/09/19 03:07:55;;;;;;;16.10;11.10;;;;;;;10.33;71.31;100414.20;117042;1184;22940;-75
2021/09/19 03:10:24;;;;;;;13.60;12.00;;;;;;;10.31;71.28;100412.69;117155;1187;22120;-75
2021/09/19 03:12:53;;;;;;;11.30;10.20;;;;;;;10.28;71.38;100408.75;117123;1187;21886;-76
2021/09/19 03:15:22;;;;;;;12.80;11.30;;;;;;;10.28;71.66;100404.98;117085;1187;21930;-76
2021/09/19 03:17:51;;;;;;;10.90;9.90;;;;;;;10.30;71.69;100409.74;117129;1187;21889;-75
2021/09/19 03:20:20;;;;;;;12.90;10.80;;;;;;;10.30;71.68;100413.04;117125;1187;22956;-75
2021/09/19 03:22:49;;;;;;;11.00;9.90;;;;;;;10.31;71.75;100418.06;117074;1187;23430;-76
2021/09/19 03:25:18;;;;;;;13.00;10.00;;;;;;;10.34;71.84;100417.27;117098;1187;22901;-75
2021/09/19 03:27:47;;;;;;;13.70;9.60;;;;;;;10.35;71.80;100419.98;117089;1183;22900;-75
2021/09/19 03:30:16;;;;;;;13.20;8.90;;;;;;;10.35;71.69;100416.82;117114;1187;21901;-75
2021/09/19 03:32:45;;;;;;;11.20;9.00;;;;;;;10.34;71.56;100418.00;117087;1187;21903;-76
2021/09/19 03:35:14;;;;;;;11.80;10.60;;;;;;;10.33;71.52;100413.64;117104;1187;22893;-75
2021/09/19 03:37:44;;;;;;;13.10;9.10;;;;;;;10.34;71.50;100415.52;117093;1187;21889;-74
2021/09/19 03:40:14;;;;;;;11.20;9.30;;;;;;;10.33;71.33;100416.64;117108;1187;21878;-75
2021/09/19 03:42:43;;;;;;;11.40;9.90;;;;;;;10.32;71.44;100416.74;117134;1187;23567;-75
2021/09/19 03:45:12;;;;;;;10.50;9.10;;;;;;;10.32;71.39;100415.89;116903;1189;22940;-75
2021/09/19 03:47:41;;;;;;;10.10;8.40;;;;;;;10.33;71.50;100414.50;116798;1189;21882;-76
2021/09/19 03:50:11;;;;;;;10.70;8.80;;;;;;;10.34;71.47;100415.69;116796;1186;22136;-76
2021/09/19 03:52:40;;;;;;;9.30;8.00;;;;;;;10.34;71.30;100415.97;116758;1186;21886;-75
2021/09/19 03:55:10;;;;;;;13.10;8.70;;;;;;;10.34;71.13;100414.10;117060;1189;21905;-75
2021/09/19 03:57:39;;;;;;;8.90;8.00;;;;;;;10.32;71.00;100411.98;116643;1192;23536;-75
2021/09/19 04:00:09;;;;;;;10.10;8.90;;;;;;;10.31;70.94;100406.52;116592;1192;23554;-76
2021/09/19 04:02:42;;;;;;;13.00;8.70;;;;;;;10.29;70.93;100408.65;116767;1190;21876;-75
2021/09/19 04:05:12;;;;;;;11.60;9.40;;;;;;;10.26;70.89;100409.98;116777;1189;21879;-75
2021/09/19 04:07:41;;;;;;;11.70;9.10;;;;;;;10.23;70.86;100413.09;116546;1193;22188;-75
2021/09/19 04:10:11;;;;;;;10.50;8.80;;;;;;;10.20;70.84;100413.77;116519;1193;23437;-76
2021/09/19 04:12:40;;;;;;;17.40;8.60;;;;;;;10.15;70.70;100414.75;116446;1193;21905;-76
2021/09/19 04:15:12;;;;;;;13.40;10.40;;;;;;;10.08;70.59;100418.45;116464;1191;22914;-77
2021/09/19 04:17:41;;;;;;;10.70;8.60;;;;;;;10.01;70.68;100418.33;116624;1192;21945;-77
2021/09/19 04:20:11;;;;;;;10.30;9.30;;;;;;;9.94;70.90;100416.53;116594;1192;23365;-76
2021/09/19 04:22:41;;;;;;;15.50;9.40;;;;;;;9.90;71.08;100415.17;116647;1192;21870;-76
2021/09/19 04:25:11;;;;;;;10.80;9.70;;;;;;;9.86;71.15;100412.15;116728;1189;22007;-76
2021/09/19 04:27:40;;;;;;;11.70;9.20;;;;;;;9.80;71.28;100413.77;117029;1185;22891;-75
2021/09/19 04:30:11;;;;;;;10.80;9.60;;;;;;;9.75;71.27;100415.06;116856;1189;21928;-75
2021/09/19 04:32:44;;;;;;;12.40;10.00;;;;;;;9.69;71.33;100416.57;116927;1189;21909;-75
2021/09/19 04:35:13;;;;;;;12.30;9.80;;;;;;;9.64;71.56;100419.85;116918;1188;21894;-76
2021/09/19 04:37:43;;;;;;;13.40;10.00;;;;;;;9.60;71.87;100422.77;117121;1187;21977;-75
2021/09/19 04:40:12;;;;;;;13.20;10.00;;;;;;;9.56;72.05;100423.88;117079;1187;21863;-75
2021/09/19 04:42:42;;;;;;;11.30;9.40;;;;;;;9.54;72.16;100426.92;117105;1187;23541;-76
2021/09/19 04:45:11;;;;;;;14.30;10.30;;;;;;;9.52;72.42;100427.12;116925;1188;21890;-74
2021/09/19 04:47:40;;;;;;;15.00;9.90;;;;;;;9.50;72.49;100427.88;117085;1187;21989;-75
2021/09/19 04:50:14;;;;;;;14.90;10.10;;;;;;;9.47;72.57;100426.61;117096;1187;24136;-76
2021/09/19 04:52:44;;;;;;;15.20;10.40;;;;;;;9.44;72.70;100427.59;117105;1187;21886;-77
2021/09/19 04:55:13;;;;;;;12.20;10.50;;;;;;;9.40;72.72;100430.04;117103;1187;23022;-76
2021/09/19 04:57:42;;;;;;;13.80;10.40;;;;;;;9.39;72.95;100431.03;117095;1176;21885;-75
2021/09/19 05:00:12;;;;;;;13.20;10.30;;;;;;;9.39;73.04;100432.14;117076;1188;21876;-76
2021/09/19 05:02:41;;;;;;;14.80;11.40;;;;;;;9.39;73.30;100435.08;117095;1187;23550;-76
2021/09/19 05:05:10;;;;;;;13.00;10.30;;;;;;;9.40;73.47;100436.40;117073;1188;21891;-76
2021/09/19 05:07:39;;;;;;;12.00;10.80;;;;;;;9.41;73.67;100432.24;117077;1188;21890;-75
2021/09/19 05:10:09;;;;;;;14.20;12.70;;;;;;;9.44;73.67;100430.79;117092;1188;21910;-76
2021/09/19 05:12:38;;;;;;;13.80;12.40;;;;;;;9.46;73.78;100431.98;117085;1187;22921;-77
2021/09/19 05:15:09;;;;;;;15.40;12.20;;;;;;;9.49;73.89;100432.76;117067;1188;22618;-77
2021/09/19 05:17:38;;;;;;;16.50;11.90;;;;;;;9.51;73.85;100434.43;116981;1187;21876;-77
2021/09/19 05:20:09;;;;;;;17.00;14.10;;;;;;;9.54;73.91;100433.27;117110;1187;22842;-75
2021/09/19 05:22:37;;;;;;;20.00;13.40;;;;;;;9.57;74.01;100434.66;117156;1187;21892;-74
2021/09/19 05:25:08;;;;;;;15.30;12.20;;;;;;;9.62;74.07;100437.72;117091;1187;23382;-76
2021/09/19 05:27:37;;;;;;;13.00;11.70;;;;;;;9.67;74.17;100440.86;117082;1188;21895;-76
2021/09/19 05:30:08;;;;;;;13.20;11.50;;;;;;;9.73;74.04;100442.89;117092;1188;21879;-74
2021/09/19 05:32:37;;;;;;;15.20;12.50;;;;;;;9.77;74.00;100438.95;117109;1188;21890;-77
2021/09/19 05:35:07;;;;;;;13.20;11.60;;;;;;;9.81;74.05;100435.83;117108;1185;21877;-74
2021/09/19 05:37:37;;;;;;;15.40;13.90;;;;;;;9.87;74.01;100438.27;117126;1176;22926;-75
2021/09/19 05:40:09;;;;;;;13.60;11.40;;;;;;;9.92;73.93;100434.93;116661;1191;22890;-77
2021/09/19 05:42:38;;;;;;;11.70;10.50;;;;;;;9.98;73.89;100439.23;116787;1190;21870;-76
2021/09/19 05:45:08;;;;;;;16.60;11.20;;;;;;;10.04;74.00;100444.23;116710;1190;23691;-76
2021/09/19 05:47:37;;;;;;;12.60;9.80;;;;;;;10.12;74.05;100447.77;116591;1187;21893;-78
2021/09/19 05:50:07;;;;;;;14.70;10.50;;;;;;;10.17;73.68;100455.64;116784;1191;22144;-77
2021/09/19 05:52:36;;;;;;;12.80;10.20;;;;;;;10.21;73.61;100458.91;116724;1190;21887;-76
2021/09/19 05:55:07;;;;;;;11.70;10.00;;;;;;;10.29;73.72;100455.31;116677;1190;21885;-77
2021/09/19 05:57:36;;;;;;;10.30;9.30;;;;;;;10.36;73.54;100454.71;116700;1188;21879;-75
2021/09/19 06:00:10;;;;;;;14.20;9.50;;;;;;;10.41;73.32;100456.81;117090;1185;22821;-76
2021/09/19 06:02:39;;;;;;;10.70;9.20;;;;;;;10.48;73.31;100452.73;117102;1184;21893;-78
2021/09/19 06:05:10;;;;;;;12.40;10.70;;;;;;;10.54;73.01;100454.55;117094;1184;21978;-77
2021/09/19 06:07:39;;;;;;;12.60;8.90;;;;;;;10.61;72.85;100453.45;116810;1189;21901;-77
2021/09/19 06:10:09;;;;;;;12.40;9.10;;;;;;;10.69;72.91;100457.81;116507;1190;21905;-75
2021/09/19 06:12:39;;;;;;;10.00;8.70;;;;;;;10.79;72.74;100456.95;116451;1193;21890;-76
2021/09/19 06:15:10;;;;;;;11.20;8.30;;;;;;;10.89;72.70;100458.36;116305;1191;22593;-75
2021/09/19 06:17:39;;;;;;;12.30;8.80;;;;;;;10.98;72.36;100457.39;116527;1193;21912;-77
2021/09/19 06:20:09;;;;;;;9.40;8.40;;;;;;;11.06;72.01;100455.40;116394;1193;21877;-76
2021/09/19 06:22:38;;;;;;;10.90;8.90;;;;;;;11.15;71.83;100454.09;116358;1194;21902;-77
2021/09/19 06:25:08;;;;;;;10.20;8.30;;;;;;;11.24;71.70;100453.92;116363;1192;22071;-77
2021/09/19 06:27:38;;;;;;;10.30;8.00;;;;;;;11.35;71.27;100458.84;116622;1188;23462;-78
2021/09/19 06:30:09;;;;;;;9.40;8.50;;;;;;;11.44;71.11;100461.67;116741;1189;21903;-76
2021/09/19 06:32:39;;;;;;;11.50;9.00;;;;;;;11.51;70.58;100459.42;116941;1189;22405;-76
2021/09/19 06:35:09;;;;;;;7.90;7.10;;;;;;;11.58;70.21;100459.34;116624;1192;21869;-76
2021/09/19 06:37:38;;;;;;;8.90;8.00;;;;;;;11.67;70.00;100462.58;116609;1192;23611;-75
2021/09/19 06:40:08;;;;;;;8.70;7.40;;;;;;;11.74;69.57;100465.48;116647;1191;21892;-75
2021/09/19 06:42:37;;;;;;;9.30;8.40;;;;;;;11.77;68.97;100461.20;116770;1190;23554;-75
2021/09/19 06:45:09;;;;;;;10.80;8.80;;;;;;;11.82;68.57;100462.66;116725;1191;21889;-76
2021/09/19 06:47:40;;;;;;;11.40;8.40;;;;;;;11.86;68.36;100464.70;116781;1190;21886;-76
2021/09/19 06:50:12;;;;;;;12.10;9.70;;;;;;;11.91;68.06;100464.15;116753;1190;21903;-76
2021/09/19 06:52:41;;;;;;;11.30;7.80;;;;;;;11.94;67.89;100465.89;116811;1188;21872;-76
2021/09/19 06:55:11;;;;;;;11.00;7.80;;;;;;;12.00;67.73;100468.94;117102;1188;21876;-76
2021/09/19 06:57:40;;;;;;;12.30;8.40;;;;;;;12.05;67.16;100472.48;117117;1184;21878;-77
2021/09/19 07:00:10;;;;;;;11.60;7.80;;;;;;;12.05;66.86;100476.38;116955;1187;21875;-77
2021/09/19 07:02:39;;;;;;;9.00;6.40;;;;;;;12.02;66.58;100477.20;117234;1188;23531;-77
2021/09/19 07:05:09;;;;;;;8.00;6.70;;;;;;;12.03;66.62;100479.38;117104;1187;22898;-77
2021/09/19 07:07:39;;;;;;;8.50;7.00;;;;;;;12.05;66.58;100476.81;117102;1188;21873;-76
2021/09/19 07:10:09;;;;;;;11.80;8.00;;;;;;;12.09;66.44;100475.92;116996;1187;24144;-77
2021/09/19 07:12:39;;;;;;;9.10;7.20;;;;;;;12.14;66.35;100474.48;117102;1188;23553;-76
2021/09/19 07:15:11;;;;;;;8.50;7.30;;;;;;;12.16;65.97;100474.04;117089;1188;23532;-76
2021/09/19 07:17:40;;;;;;;9.90;7.80;;;;;;;12.16;65.66;100474.40;116787;1190;21894;-77
2021/09/19 07:20:09;;;;;;;10.20;6.70;;;;;;;12.17;65.73;100473.17;116659;1190;22623;-76
2021/09/19 07:22:40;;;;;;;11.10;7.30;;;;;;;12.21;65.51;100467.93;116652;1191;21888;-76
2021/09/19 07:25:10;;;;;;;11.70;7.60;;;;;;;12.28;65.43;100470.05;116638;1191;23538;-77
2021/09/19 07:27:40;;;;;;;6.60;5.50;;;;;;;12.36;65.30;100472.49;116604;1192;21902;-78
2021/09/19 07:30:10;;;;;;;10.90;8.90;;;;;;;12.41;64.96;100475.73;116671;1191;24143;-76
2021/09/19 07:32:40;;;;;;;10.90;7.00;;;;;;;12.47;64.87;100470.81;116670;1187;21896;-76
2021/09/19 07:35:09;;;;;;;8.10;6.10;;;;;;;12.54;64.51;100472.15;116663;1189;21898;-76
2021/09/19 07:37:40;;;;;;;7.80;6.20;;;;;;;12.56;63.93;100469.59;116832;1188;22329;-76
2021/09/19 07:40:10;;;;;;;10.50;7.10;;;;;;;12.53;63.31;100471.86;116945;1188;22887;-78
2021/09/19 07:42:39;;;;;;;16.10;7.00;;;;;;;12.53;63.37;100472.39;117080;1188;23555;-77
2021/09/19 07:45:10;;;;;;;11.90;7.00;;;;;;;12.59;63.47;100471.75;116930;1185;21933;-78
2021/09/19 07:47:40;;;;;;;11.00;7.10;;;;;;;12.66;63.22;100475.17;117000;1188;22845;-76
2021/09/19 07:50:15;;;;;;;12.10;10.20;;;;;;;12.70;62.81;100476.06;117086;1188;21881;-78
2021/09/19 07:52:45;;;;;;;9.80;8.10;;;;;;;12.75;62.54;100478.86;117015;1185;22933;-77
2021/09/19 07:55:17;;;;;;;9.60;6.90;;;;;;;12.80;62.14;100478.70;116949;1188;23843;-75
2021/09/19 07:57:46;;;;;;;11.10;10.00;;;;;;;12.83;62.04;100480.26;117084;1187;22883;-76
2021/09/19 08:00:16;;;;;;;8.00;5.50;;;;;;;12.86;61.86;100480.52;117061;1187;23530;-76
2021/09/19 08:02:45;;;;;;;8.60;6.20;;;;;;;12.89;61.70;100476.70;117096;1187;21858;-76
2021/09/19 08:05:15;;;;;;;9.10;6.10;;;;;;;12.94;61.62;100474.00;116943;1188;22903;-76
2021/09/19 08:07:45;;;;;;;6.60;5.30;;;;;;;13.00;61.53;100475.64;116777;1190;23500;-76
2021/09/19 08:10:18;;;;;;;12.30;7.10;;;;;;;13.06;61.32;100473.25;116757;1177;21980;-76
2021/09/19 08:12:48;;;;;;;7.70;5.70;;;;;;;13.11;60.88;100469.20;116625;1192;21891;-77
2021/09/19 08:15:20;;;;;;;8.00;5.10;;;;;;;13.10;60.54;100464.45;116589;1192;23537;-75
2021/09/19 08:17:49;;;;;;;9.50;6.10;;;;;;;13.12;60.52;100465.17;116669;1192;22905;-77
2021/09/19 08:20:19;;;;;;;9.00;5.90;;;;;;;13.13;60.37;100462.17;116646;1192;21890;-77
2021/09/19 08:22:48;;;;;;;9.70;5.70;;;;;;;13.15;60.34;100466.16;116407;1194;22982;-77
2021/09/19 08:25:18;;;;;;;11.70;5.80;;;;;;;13.20;60.31;100465.25;116362;1192;21893;-77
2021/09/19 08:27:48;;;;;;;9.60;5.90;;;;;;;13.31;60.56;100468.09;116605;1184;21885;-76
2021/09/19 08:30:18;;;;;;;9.30;8.20;;;;;;;13.40;60.28;100471.53;116289;1194;21929;-77
2021/09/19 08:32:47;;;;;;;10.10;6.20;;;;;;;13.49;59.90;100473.73;116330;1194;22958;-77
2021/09/19 08:35:17;;;;;;;11.30;6.50;;;;;;;13.58;59.81;100479.19;116333;1190;21884;-77
2021/09/19 08:37:47;;;;;;;9.70;5.70;;;;;;;13.67;59.52;100479.84;116338;1194;21889;-76
2021/09/19 08:40:16;;;;;;;16.10;8.30;;;;;;;13.73;59.14;100481.96;116331;1192;21901;-79
2021/09/19 08:42:52;;;;;;;7.70;5.70;;;;;;;13.78;59.26;100481.04;116669;1190;22930;-76
2021/09/19 08:45:23;;;;;;;11.30;5.70;;;;;;;13.80;58.95;100480.20;116562;1192;21904;-77
2021/09/19 08:47:53;;;;;;;6.50;5.70;;;;;;;13.81;58.66;100480.63;116673;1188;23534;-77
2021/09/19 08:50:22;;;;;;;7.40;6.60;;;;;;;13.83;58.91;100479.52;116998;1188;22891;-76
2021/09/19 08:52:51;;;;;;;12.40;6.00;;;;;;;13.90;58.86;100483.84;116887;1189;23611;-76
2021/09/19 08:55:20;;;;;;;8.90;5.90;;;;;;;13.96;58.58;100482.57;116912;1188;23465;-77
2021/09/19 08:57:49;;;;;;;7.20;5.60;;;;;;;13.99;58.26;100483.58;116901;1189;23653;-76
2021/09/19 09:00:18;;;;;;;9.30;7.50;;;;;;;14.00;58.00;100481.51;116745;1190;22917;-76
2021/09/19 09:02:54;;;;;;;14.50;10.20;;;;;;;14.04;58.14;100484.37;116891;1190;21889;-76
2021/09/19 09:05:29;;;;;;;11.60;8.80;;;;;;;14.08;58.08;100483.66;116646;1191;22908;-76
2021/09/19 09:07:59;;;;;;;9.90;9.00;;;;;;;14.11;57.74;100485.73;116701;1190;23294;-75
2021/09/19 09:10:46;;;;;;;9.30;6.90;;;;;;;14.12;57.39;100485.70;116692;1189;24256;-76
2021/09/19 09:13:22;;;;;;;8.20;6.50;;;;;;;14.13;57.28;100486.48;116669;1191;21904;-75
2021/09/19 09:16:04;;;;;;;29.70;27.50;;;;;;;14.14;57.20;100486.41;116652;1191;22894;-79
2021/09/19 09:18:52;;;;;;;15.30;8.30;;;;;;;14.18;57.19;100481.46;116679;1191;21910;-76
2021/09/19 09:21:30;;;;;;;8.40;5.70;;;;;;;14.21;57.25;100483.58;116699;1191;21897;-78
2021/09/19 09:24:01;;;;;;;7.20;5.10;;;;;;;14.23;57.24;100481.03;116979;1188;23465;-76
2021/09/19 09:26:40;;;;;;;9.50;5.70;;;;;;;14.29;57.59;100481.99;117091;1187;24078;-76
2021/09/19 09:29:16;;;;;;;12.30;6.70;;;;;;;14.40;57.58;100481.23;117105;1188;21884;-76
2021/09/19 09:31:52;;;;;;;7.10;5.50;;;;;;;14.50;57.21;100481.60;117293;1188;21892;-77
2021/09/19 09:34:26;;;;;;;6.70;5.40;;;;;;;14.57;57.00;100481.90;117216;1189;23720;-77
2021/09/19 09:36:59;;;;;;;11.10;5.60;;;;;;;14.61;56.69;100477.91;117093;1189;22077;-78
2021/09/19 09:39:40;;;;;;;6.80;5.10;;;;;;;14.67;56.83;100475.46;117319;1189;21905;-75
2021/09/19 09:42:23;;;;;;;7.70;5.10;;;;;;;14.72;56.60;100474.73;117489;1186;21910;-76
2021/09/19 09:44:54;;;;;;;5.50;4.60;;;;;;;14.76;56.44;100476.04;117108;1188;22191;-78
2021/09/19 09:47:32;;;;;;;5.80;5.10;;;;;;;14.81;56.38;100470.98;117336;1187;21891;-77
2021/09/19 09:50:05;;;;;;;8.70;5.50;;;;;;;14.82;56.23;100467.45;117206;1187;22336;-75
2021/09/19 09:52:37;;;;;;;6.30;5.50;;;;;;;14.78;56.08;100465.09;117233;1187;23433;-78
2021/09/19 09:55:12;;;;;;;9.80;4.80;;;;;;;14.75;56.32;100467.45;117070;1188;23603;-75
2021/09/19 09:58:21;;;;;;;6.30;4.90;;;;;;;14.73;56.51;100466.11;117253;1188;22188;-75
2021/09/19 10:00:54;;;;;;;12.10;5.60;;;;;;;14.73;56.68;100465.50;116784;1188;21894;-76
2021/09/19 10:03:24;;;;;;;6.00;5.20;;;;;;;14.71;56.46;100467.77;116795;1187;24160;-76
2021/09/19 10:05:54;;;;;;;8.10;5.20;;;;;;;14.73;56.52;100463.37;116800;1191;21910;-76
2021/09/19 10:08:43;;;;;;;7.20;5.20;;;;;;;14.74;56.75;100459.61;116828;1191;21977;-76
2021/09/19 10:11:13;;;;;;;5.90;5.20;;;;;;;14.82;57.03;100461.27;116612;1190;21896;-77
2021/09/19 10:13:46;;;;;;;13.30;5.40;;;;;;;14.91;56.97;100460.82;116536;1193;21926;-76
2021/09/19 10:16:16;;;;;;;7.20;4.60;;;;;;;15.02;56.84;100463.55;116625;1193;21913;-77
2021/09/19 10:18:49;;;;;;;10.30;5.30;;;;;;;15.16;57.00;100463.84;116681;1193;22489;-76
2021/09/19 10:21:24;;;;;;;7.00;4.80;;;;;;;15.30;56.58;100464.55;116717;1193;23092;-75
2021/09/19 10:23:55;;;;;;;7.10;4.80;;;;;;;15.40;55.95;100462.94;116540;1193;21881;-74
2021/09/19 10:26:30;;;;;;;5.60;4.20;;;;;;;15.49;55.72;100465.47;116623;1193;21927;-76
2021/09/19 10:29:00;;;;;;;7.10;4.20;;;;;;;15.58;55.30;100464.98;116521;1192;21992;-75
2021/09/19 10:31:33;;;;;;;6.70;4.80;;;;;;;15.63;55.04;100466.23;116679;1192;23464;-75
2021/09/19 10:34:08;;;;;;;5.70;4.60;;;;;;;15.71;55.00;100463.43;116543;1194;24155;-77
2021/09/19 10:36:45;;;;;;;9.70;4.80;;;;;;;15.83;54.65;100462.91;116816;1190;22410;-75
2021/09/19 10:39:30;;;;;;;6.10;4.60;;;;;;;15.81;53.56;100461.33;116798;1190;22343;-75
2021/09/19 10:42:25;;;;;;;7.70;4.70;;;;;;;15.64;53.28;100456.55;116849;1190;23415;-76
2021/09/19 10:44:58;;;;;;;10.10;8.20;;;;;;;15.49;53.45;100453.80;116813;1190;23309;-76
2021/09/19 10:47:44;;;;;;;8.50;5.10;;;;;;;15.36;53.84;100454.64;116888;1190;24436;-76
2021/09/19 10:50:36;;;;;;;6.60;4.60;;;;;;;15.53;56.13;100457.09;116845;1188;24317;-76
2021/09/19 10:53:26;;;;;;;11.50;4.50;;;;;;;15.71;55.47;100455.89;117016;1189;23540;-76
2021/09/19 10:55:59;;;;;;;5.50;4.80;;;;;;;15.89;56.11;100457.65;117229;1187;23433;-76
2021/09/19 10:58:40;;;;;;;7.00;5.20;;;;;;;16.32;56.40;100461.40;117126;1188;21885;-76
2021/09/19 11:01:34;;;;;;;7.40;5.30;;;;;;;16.42;53.98;100457.88;117229;1187;21984;-76
2021/09/19 11:04:15;;;;;;;10.60;5.00;;;;;;;16.29;52.82;100462.30;117117;1188;21894;-76
2021/09/19 11:06:44;;;;;;;7.00;4.40;;;;;;;16.16;52.88;100460.25;117066;1178;22944;-76
2021/09/19 11:09:26;;;;;;;5.80;4.40;;;;;;;16.09;53.20;100462.20;117222;1188;21882;-76
2021/09/19 11:12:11;;;;;;;;;;;;;;;16.05;53.63;100462.20;117227;1188;23428;-76
2021/09/19 11:15:03;;;;;;;5.70;3.70;;;;;;;16.05;53.99;100461.54;117155;1187;22902;-76
2021/09/19 11:17:50;;;;;;;5.30;4.20;;;;;;;16.12;54.06;100459.06;116782;1191;21901;-76
2021/09/19 11:20:21;;;;;;;;;;;;;;;16.17;53.92;100450.71;116845;1190;23528;-76
2021/09/19 11:23:16;;;;;;;5.80;4.40;;;;;;;16.18;53.98;100448.58;116842;1187;21908;-75
2021/09/19 11:25:46;;;;;;;6.80;4.70;;;;;;;16.20;53.54;100446.49;116764;1191;21984;-74
2021/09/19 11:28:16;;;;;;;7.90;4.50;;;;;;;16.15;52.90;100444.27;116820;1191;23071;-75
2021/09/19 11:30:45;;;;;;;7.40;4.20;;;;;;;16.10;52.80;100446.73;116768;1191;23477;-75